sensor_id;sensor_type;location;lat;lon;timestamp;P1;durP1;ratioP1;P2;durP2;ratioP2
14153;SDS011;7157;53.144;7.570;2023-08-08T00:05:32;5.78;;;2.30;;
14153;SDS011;7157;53.144;7.570;2023-08-08T00:15:37;4.80;;;2.10;;
14153;SDS011;7157;53.144;7.570;2023-08-08T00:25:40;4.78;;;1.90;;
14153;SDS011;7157;53.144;7.570;2023-08-08T00:35:44;5.25;;;1.83;;
14153;SDS011;7157;53.144;7.570;2023-08-08T00:45:47;4.65;;;2.95;;
14153;SDS011;7157;53.144;7.570;2023-08-08T00:55:51;4.35;;;1.90;;
14153;SDS011;7157;53.144;7.570;2023-08-08T01:05:57;6.38;;;2.00;;
14153;SDS011;7157;53.144;7.570;2023-08-08T01:16:05;6.75;;;2.10;;
14153;SDS011;7157;53.144;7.570;2023-08-08T01:26:09;6.10;;;1.95;;
14153;SDS011;7157;53.144;7.570;2023-08-08T01:36:13;5.30;;;1.98;;
14153;SDS011;7157;53.144;7.570;2023-08-08T01:46:26;6.63;;;2.28;;
14153;SDS011;7157;53.144;7.570;2023-08-08T01:56:29;6.40;;;2.58;;
14153;SDS011;7157;53.144;7.570;2023-08-08T02:06:33;4.40;;;2.42;;
14153;SDS011;7157;53.144;7.570;2023-08-08T02:16:36;9.00;;;2.70;;
14153;SDS011;7157;53.144;7.570;2023-08-08T02:26:42;6.65;;;2.88;;
14153;SDS011;7157;53.144;7.570;2023-08-08T02:36:45;6.18;;;2.67;;
14153;SDS011;7157;53.144;7.570;2023-08-08T02:46:49;7.10;;;2.15;;
14153;SDS011;7157;53.144;7.570;2023-08-08T02:56:52;7.63;;;2.45;;
14153;SDS011;7157;53.144;7.570;2023-08-08T03:06:56;5.72;;;3.03;;
14153;SDS011;7157;53.144;7.570;2023-08-08T03:16:59;5.65;;;2.78;;
14153;SDS011;7157;53.144;7.570;2023-08-08T03:27:04;6.75;;;2.60;;
14153;SDS011;7157;53.144;7.570;2023-08-08T03:37:07;6.38;;;2.67;;
14153;SDS011;7157;53.144;7.570;2023-08-08T03:47:12;6.63;;;2.72;;
14153;SDS011;7157;53.144;7.570;2023-08-08T03:57:20;5.87;;;2.73;;
14153;SDS011;7157;53.144;7.570;2023-08-08T04:07:24;6.05;;;2.70;;
14153;SDS011;7157;53.144;7.570;2023-08-08T04:17:27;9.45;;;2.58;;
14153;SDS011;7157;53.144;7.570;2023-08-08T04:27:32;7.32;;;2.40;;
14153;SDS011;7157;53.144;7.570;2023-08-08T04:37:35;7.05;;;2.38;;
14153;SDS011;7157;53.144;7.570;2023-08-08T04:47:39;10.00;;;2.78;;
14153;SDS011;7157;53.144;7.570;2023-08-08T04:57:42;4.75;;;2.42;;
14153;SDS011;7157;53.144;7.570;2023-08-08T05:07:46;5.43;;;2.38;;
14153;SDS011;7157;53.144;7.570;2023-08-08T05:17:49;7.15;;;1.70;;
14153;SDS011;7157;53.144;7.570;2023-08-08T05:27:54;5.43;;;1.83;;
14153;SDS011;7157;53.144;7.570;2023-08-08T05:37:57;6.97;;;1.75;;
14153;SDS011;7157;53.144;7.570;2023-08-08T05:48:01;9.65;;;2.65;;
14153;SDS011;7157;53.144;7.570;2023-08-08T05:58:04;8.45;;;1.38;;
14153;SDS011;7157;53.144;7.570;2023-08-08T06:08:08;7.40;;;1.50;;
14153;SDS011;7157;53.144;7.570;2023-08-08T06:18:13;4.53;;;1.40;;
14153;SDS011;7157;53.144;7.570;2023-08-08T06:28:18;8.07;;;1.30;;
14153;SDS011;7157;53.144;7.570;2023-08-08T06:38:20;4.10;;;1.10;;
14153;SDS011;7157;53.144;7.570;2023-08-08T06:48:25;6.28;;;1.17;;
14153;SDS011;7157;53.144;7.570;2023-08-08T06:58:28;4.82;;;0.95;;
14153;SDS011;7157;53.144;7.570;2023-08-08T07:08:32;10.65;;;1.30;;
14153;SDS011;7157;53.144;7.570;2023-08-08T07:18:35;6.38;;;1.27;;
14153;SDS011;7157;53.144;7.570;2023-08-08T07:28:40;4.90;;;1.20;;
14153;SDS011;7157;53.144;7.570;2023-08-08T07:38:43;5.50;;;1.00;;
14153;SDS011;7157;53.144;7.570;2023-08-08T07:48:47;4.78;;;1.10;;
14153;SDS011;7157;53.144;7.570;2023-08-08T07:58:50;8.10;;;0.98;;
14153;SDS011;7157;53.144;7.570;2023-08-08T08:08:54;2.83;;;0.90;;
14153;SDS011;7157;53.144;7.570;2023-08-08T08:18:57;5.18;;;0.85;;
14153;SDS011;7157;53.144;7.570;2023-08-08T08:29:01;8.00;;;0.88;;
14153;SDS011;7157;53.144;7.570;2023-08-08T08:39:04;5.20;;;1.27;;
14153;SDS011;7157;53.144;7.570;2023-08-08T08:49:09;6.15;;;0.90;;
14153;SDS011;7157;53.144;7.570;2023-08-08T08:59:13;5.22;;;0.68;;
14153;SDS011;7157;53.144;7.570;2023-08-08T09:09:17;3.55;;;0.70;;
14153;SDS011;7157;53.144;7.570;2023-08-08T09:19:23;4.40;;;0.85;;
14153;SDS011;7157;53.144;7.570;2023-08-08T09:29:28;5.55;;;0.93;;
14153;SDS011;7157;53.144;7.570;2023-08-08T09:39:31;5.38;;;1.08;;
14153;SDS011;7157;53.144;7.570;2023-08-08T09:49:35;4.18;;;0.70;;
14153;SDS011;7157;53.144;7.570;2023-08-08T09:59:39;4.15;;;0.80;;
14153;SDS011;7157;53.144;7.570;2023-08-08T10:09:44;6.20;;;0.80;;
14153;SDS011;7157;53.144;7.570;2023-08-08T10:19:50;3.55;;;0.90;;
14153;SDS011;7157;53.144;7.570;2023-08-08T10:30:00;7.15;;;1.02;;
14153;SDS011;7157;53.144;7.570;2023-08-08T10:40:04;8.40;;;1.20;;
14153;SDS011;7157;53.144;7.570;2023-08-08T10:50:10;4.00;;;0.90;;
14153;SDS011;7157;53.144;7.570;2023-08-08T11:00:18;6.13;;;0.90;;
14153;SDS011;7157;53.144;7.570;2023-08-08T11:10:23;5.32;;;0.70;;
14153;SDS011;7157;53.144;7.570;2023-08-08T11:20:32;3.00;;;0.90;;
14153;SDS011;7157;53.144;7.570;2023-08-08T11:30:42;3.92;;;0.90;;
14153;SDS011;7157;53.144;7.570;2023-08-08T11:40:46;5.45;;;0.93;;
14153;SDS011;7157;53.144;7.570;2023-08-08T11:50:52;6.30;;;1.15;;
14153;SDS011;7157;53.144;7.570;2023-08-08T12:00:55;3.55;;;0.80;;
14153;SDS011;7157;53.144;7.570;2023-08-08T12:11:00;4.38;;;1.00;;
14153;SDS011;7157;53.144;7.570;2023-08-08T12:21:05;4.22;;;0.82;;
14153;SDS011;7157;53.144;7.570;2023-08-08T12:31:09;4.75;;;1.02;;
14153;SDS011;7157;53.144;7.570;2023-08-08T12:41:12;4.82;;;0.90;;
14153;SDS011;7157;53.144;7.570;2023-08-08T12:51:17;7.50;;;0.90;;
14153;SDS011;7157;53.144;7.570;2023-08-08T13:01:20;3.13;;;0.80;;
14153;SDS011;7157;53.144;7.570;2023-08-08T13:11:25;7.15;;;1.23;;
14153;SDS011;7157;53.144;7.570;2023-08-08T13:21:28;2.90;;;0.98;;
14153;SDS011;7157;53.144;7.570;2023-08-08T13:31:32;2.97;;;0.77;;
14153;SDS011;7157;53.144;7.570;2023-08-08T13:41:35;7.45;;;1.20;;
14153;SDS011;7157;53.144;7.570;2023-08-08T13:51:39;3.13;;;0.77;;
14153;SDS011;7157;53.144;7.570;2023-08-08T14:01:45;5.55;;;0.82;;
14153;SDS011;7157;53.144;7.570;2023-08-08T14:11:50;6.40;;;1.08;;
14153;SDS011;7157;53.144;7.570;2023-08-08T14:21:53;8.10;;;1.73;;
14153;SDS011;7157;53.144;7.570;2023-08-08T14:31:57;3.42;;;0.80;;
14153;SDS011;7157;53.144;7.570;2023-08-08T14:42:01;3.85;;;0.90;;
14153;SDS011;7157;53.144;7.570;2023-08-08T14:52:07;3.22;;;0.90;;
14153;SDS011;7157;53.144;7.570;2023-08-08T15:02:10;5.35;;;1.00;;
14153;SDS011;7157;53.144;7.570;2023-08-08T15:12:16;3.60;;;0.80;;
14153;SDS011;7157;53.144;7.570;2023-08-08T15:22:19;3.75;;;0.80;;
14153;SDS011;7157;53.144;7.570;2023-08-08T15:32:23;3.67;;;0.77;;
14153;SDS011;7157;53.144;7.570;2023-08-08T15:42:26;4.60;;;1.15;;
14153;SDS011;7157;53.144;7.570;2023-08-08T15:52:31;3.10;;;0.80;;
14153;SDS011;7157;53.144;7.570;2023-08-08T16:02:34;3.10;;;0.70;;
14153;SDS011;7157;53.144;7.570;2023-08-08T16:12:38;4.22;;;1.00;;
14153;SDS011;7157;53.144;7.570;2023-08-08T16:22:41;2.08;;;0.70;;
14153;SDS011;7157;53.144;7.570;2023-08-08T16:32:46;5.63;;;0.95;;
14153;SDS011;7157;53.144;7.570;2023-08-08T16:42:49;4.65;;;0.60;;
14153;SDS011;7157;53.144;7.570;2023-08-08T16:52:53;4.60;;;0.70;;
14153;SDS011;7157;53.144;7.570;2023-08-08T17:02:56;2.53;;;0.80;;
14153;SDS011;7157;53.144;7.570;2023-08-08T17:13:00;2.67;;;0.60;;
14153;SDS011;7157;53.144;7.570;2023-08-08T17:23:03;2.53;;;0.60;;
14153;SDS011;7157;53.144;7.570;2023-08-08T17:33:07;3.63;;;0.90;;
14153;SDS011;7157;53.144;7.570;2023-08-08T17:43:10;2.75;;;0.80;;
14153;SDS011;7157;53.144;7.570;2023-08-08T17:53:14;5.35;;;0.80;;
14153;SDS011;7157;53.144;7.570;2023-08-08T18:03:18;3.03;;;0.60;;
14153;SDS011;7157;53.144;7.570;2023-08-08T18:13:23;7.45;;;1.17;;
14153;SDS011;7157;53.144;7.570;2023-08-08T18:23:26;4.20;;;0.90;;
14153;SDS011;7157;53.144;7.570;2023-08-08T18:33:30;4.20;;;0.70;;
14153;SDS011;7157;53.144;7.570;2023-08-08T18:43:33;5.07;;;0.70;;
14153;SDS011;7157;53.144;7.570;2023-08-08T18:53:38;2.42;;;0.65;;
14153;SDS011;7157;53.144;7.570;2023-08-08T19:03:40;5.82;;;1.13;;
14153;SDS011;7157;53.144;7.570;2023-08-08T19:13:45;4.53;;;0.88;;
14153;SDS011;7157;53.144;7.570;2023-08-08T19:23:48;7.65;;;1.20;;
14153;SDS011;7157;53.144;7.570;2023-08-08T19:33:52;8.23;;;1.00;;
14153;SDS011;7157;53.144;7.570;2023-08-08T19:44:06;7.38;;;1.17;;
14153;SDS011;7157;53.144;7.570;2023-08-08T19:54:11;5.20;;;1.15;;
14153;SDS011;7157;53.144;7.570;2023-08-08T20:04:13;4.40;;;0.85;;
14153;SDS011;7157;53.144;7.570;2023-08-08T20:14:18;8.65;;;0.98;;
14153;SDS011;7157;53.144;7.570;2023-08-08T20:24:21;5.03;;;1.15;;
14153;SDS011;7157;53.144;7.570;2023-08-08T20:34:25;2.42;;;0.80;;
14153;SDS011;7157;53.144;7.570;2023-08-08T20:44:29;3.85;;;1.05;;
14153;SDS011;7157;53.144;7.570;2023-08-08T20:54:33;4.63;;;1.17;;
14153;SDS011;7157;53.144;7.570;2023-08-08T21:04:36;7.90;;;0.80;;
14153;SDS011;7157;53.144;7.570;2023-08-08T21:49:05;3.92;;;0.73;;
14153;SDS011;7157;53.144;7.570;2023-08-08T22:10:40;6.72;;;1.00;;
14153;SDS011;7157;53.144;7.570;2023-08-08T22:20:43;3.00;;;1.05;;
14153;SDS011;7157;53.144;7.570;2023-08-08T22:30:48;4.20;;;0.77;;
14153;SDS011;7157;53.144;7.570;2023-08-08T22:40:53;7.70;;;1.25;;
14153;SDS011;7157;53.144;7.570;2023-08-08T22:50:58;7.05;;;1.13;;
14153;SDS011;7157;53.144;7.570;2023-08-08T23:01:01;3.47;;;0.98;;
14153;SDS011;7157;53.144;7.570;2023-08-08T23:11:05;2.90;;;0.90;;
14153;SDS011;7157;53.144;7.570;2023-08-08T23:21:08;4.03;;;0.80;;
14153;SDS011;7157;53.144;7.570;2023-08-08T23:31:12;1.90;;;0.70;;
14153;SDS011;7157;53.144;7.570;2023-08-08T23:41:16;3.53;;;1.10;;
14153;SDS011;7157;53.144;7.570;2023-08-08T23:51:21;4.43;;;1.13;;
